Time;durP1;ratioP1;P1;durP2;ratioP2;P2;SDS_P1;SDS_P2;PMS_P1;PMS_P2;Temp;Humidity;BMP_temperature;BMP_pressure;BME280_temperature;BME280_humidity;BME280_pressure;Samples;Min_cycle;Max_cycle;Signal;HPM_P1;HPM_P2
2022/04/11 17:41:40;;;;;;;2.33;0.70;;;;;;;14.11;42.43;99318.19;4993085;23;20244;-88
2022/04/11 17:44:08;;;;;;;1.73;0.63;;;;;;;14.07;42.27;99318.47;4958720;29;20208;-88
2022/04/11 17:46:33;;;;;;;1.33;0.80;;;;;;;14.13;42.38;99326.81;4941153;29;20188;-88
2022/04/11 17:48:59;;;;;;;3.33;0.73;;;;;;;14.18;42.13;99328.34;4940667;29;20189;-89
2022/04/11 17:51:24;;;;;;;0.87;0.40;;;;;;;14.13;42.38;99332.09;4957292;29;20509;-87
2022/04/11 17:53:50;;;;;;;1.20;0.70;;;;;;;14.10;42.12;99342.84;4939879;29;20185;-87
2022/04/11 17:56:16;;;;;;;0.63;0.40;;;;;;;14.19;42.40;99351.97;4956366;29;20637;-87
2022/04/11 17:58:42;;;;;;;0.63;0.50;;;;;;;14.18;41.92;99353.75;4956321;29;20330;-87
2022/04/11 18:01:07;;;;;;;2.03;0.70;;;;;;;14.26;42.26;99355.03;4956263;29;20185;-87
2022/04/11 18:03:33;;;;;;;1.47;0.90;;;;;;;14.29;42.50;99357.47;4956334;29;20194;-87
2022/04/11 18:05:58;;;;;;;2.30;0.60;;;;;;;14.25;42.68;99362.13;4956584;29;20181;-87
2022/04/11 18:08:24;;;;;;;1.43;0.67;;;;;;;14.18;42.66;99364.28;4956439;29;20184;-87
2022/04/11 18:10:50;;;;;;;0.70;0.50;;;;;;;14.09;42.79;99366.66;4939120;29;20279;-87
2022/04/11 18:13:15;;;;;;;0.63;0.63;;;;;;;14.09;43.11;99372.78;4956604;29;20180;-87
2022/04/11 18:15:41;;;;;;;6.03;0.97;;;;;;;14.14;43.09;99372.50;4956324;29;20188;-87
2022/04/11 18:18:06;;;;;;;2.73;1.60;;;;;;;14.07;43.82;99382.56;4956057;29;20181;-87
2022/04/11 18:20:33;;;;;;;4.90;1.90;;;;;;;13.87;44.79;99382.97;4955963;29;20695;-88
2022/04/11 18:22:58;;;;;;;2.90;1.50;;;;;;;13.74;44.83;99392.56;4956060;29;20214;-87
2022/04/11 18:25:25;;;;;;;3.30;1.37;;;;;;;13.48;44.78;99395.94;4956417;29;20181;-88
2022/04/11 18:27:51;;;;;;;3.07;1.27;;;;;;;13.44;44.53;99392.63;4956035;29;20243;-87
2022/04/11 18:33:01;;;;;;;3.43;1.43;;;;;;;13.26;44.48;99400.81;4956300;29;20195;-87
2022/04/11 18:35:27;;;;;;;2.97;1.30;;;;;;;13.01;45.10;99400.50;4955696;29;20179;-87
2022/04/11 18:37:58;;;;;;;2.17;1.17;;;;;;;12.89;44.90;99397.63;4955665;29;20545;-87
2022/04/11 18:40:27;;;;;;;4.27;1.97;;;;;;;12.90;45.17;99404.59;4955564;28;20321;-88
2022/04/11 18:42:53;;;;;;;4.50;1.50;;;;;;;12.82;44.96;99409.47;4956022;29;20650;-86
2022/04/11 18:45:19;;;;;;;3.40;1.37;;;;;;;12.57;44.83;99403.91;4955512;29;20675;-86
2022/04/11 18:47:44;;;;;;;4.50;1.40;;;;;;;12.71;45.13;99417.09;4955509;29;20183;-86
2022/04/11 18:50:11;;;;;;;1.87;1.20;;;;;;;12.63;45.00;99408.81;4955452;29;20187;-85
2022/04/11 18:52:36;;;;;;;3.93;1.83;;;;;;;12.55;45.25;99413.63;4955652;29;20230;-87
2022/04/11 18:55:03;;;;;;;6.83;1.47;;;;;;;12.47;45.09;99415.88;4955366;29;20202;-86
2022/04/11 18:57:28;;;;;;;4.00;1.70;;;;;;;12.56;45.06;99417.97;4955292;29;20261;-87
2022/04/11 18:59:54;;;;;;;4.10;2.23;;;;;;;12.45;45.16;99412.47;4955595;29;20247;-87
2022/04/11 19:02:20;;;;;;;5.63;1.60;;;;;;;12.38;45.59;99415.53;4938296;29;20209;-87
2022/04/11 19:04:45;;;;;;;4.20;2.00;;;;;;;12.43;46.02;99418.75;4955228;29;20554;-87
2022/04/11 19:07:12;;;;;;;3.13;1.60;;;;;;;12.48;46.14;99412.31;4955214;29;20186;-87
2022/04/11 19:09:39;;;;;;;6.03;1.60;;;;;;;12.52;45.97;99419.09;4937938;29;20196;-86
2022/04/11 19:12:06;;;;;;;2.20;1.67;;;;;;;12.43;45.99;99419.59;4955053;29;20685;-88
2022/04/11 19:14:33;;;;;;;3.63;1.27;;;;;;;12.53;45.60;99420.78;4955894;29;20178;-87
2022/04/11 19:16:59;;;;;;;3.20;1.77;;;;;;;12.61;45.80;99415.09;4955081;29;20176;-88
2022/04/11 19:19:25;;;;;;;6.13;2.00;;;;;;;12.44;45.79;99413.41;4955267;29;20190;-87
2022/04/11 19:21:50;;;;;;;5.23;2.03;;;;;;;12.13;46.03;99410.78;4955061;29;20557;-84
2022/04/11 19:24:16;;;;;;;5.83;2.70;;;;;;;12.04;46.49;99417.38;4955208;29;20205;-87
2022/04/11 19:26:41;;;;;;;3.13;1.33;;;;;;;12.10;46.38;99414.44;4955249;29;20206;-86
2022/04/11 19:29:07;;;;;;;3.30;1.93;;;;;;;11.81;46.66;99416.91;4938316;29;20204;-88
2022/04/11 19:31:35;;;;;;;4.37;1.60;;;;;;;11.99;46.48;99413.28;4954934;29;20187;-85
2022/04/11 19:34:01;;;;;;;5.40;0.97;;;;;;;11.81;46.23;99419.53;4954915;29;20189;-83
2022/04/11 19:36:27;;;;;;;2.87;2.10;;;;;;;11.59;46.44;99431.13;4955369;29;20178;-86
2022/04/11 19:38:52;;;;;;;3.33;1.43;;;;;;;11.62;46.07;99428.34;4954847;29;20183;-86
2022/04/11 19:41:18;;;;;;;2.23;1.33;;;;;;;11.69;45.74;99432.38;4954662;28;20704;-86
2022/04/11 19:43:45;;;;;;;2.20;1.40;;;;;;;11.84;45.50;99428.09;4954767;29;20209;-87
2022/04/11 19:46:11;;;;;;;2.40;1.10;;;;;;;11.52;45.43;99429.75;4954749;29;20177;-86
2022/04/11 19:51:22;;;;;;;3.93;1.53;;;;;;;11.62;45.49;99436.22;4957549;28;20209;-86
2022/04/11 19:53:48;;;;;;;2.30;1.53;;;;;;;11.59;45.47;99431.13;4942064;29;20189;-86
2022/04/11 19:56:14;;;;;;;2.33;1.33;;;;;;;11.36;45.20;99438.47;4958662;29;20217;-85
2022/04/11 19:58:40;;;;;;;1.53;1.20;;;;;;;11.25;45.61;99433.78;4958605;29;20596;-86
2022/04/11 20:01:06;;;;;;;6.33;1.60;;;;;;;11.38;45.09;99432.22;4958459;29;20239;-85
2022/04/11 20:03:31;;;;;;;3.53;1.47;;;;;;;11.28;45.06;99431.00;4958450;29;20605;-86
2022/04/11 20:05:57;;;;;;;3.73;1.77;;;;;;;11.16;45.34;99430.78;4958348;29;20177;-87
2022/04/11 20:08:22;;;;;;;1.67;1.00;;;;;;;11.17;45.39;99425.44;4941510;29;20208;-85
2022/04/11 20:10:48;;;;;;;2.90;1.00;;;;;;;11.32;44.75;99427.28;4958367;29;20538;-86
2022/04/11 20:13:13;;;;;;;3.00;1.10;;;;;;;10.91;45.39;99431.13;4958291;29;20188;-85
2022/04/11 20:15:39;;;;;;;2.43;1.20;;;;;;;11.11;45.30;99433.59;4958315;29;20188;-88
2022/04/11 20:18:04;;;;;;;1.93;1.20;;;;;;;11.25;44.56;99430.31;4958214;29;20181;-86
2022/04/11 20:20:32;;;;;;;4.83;1.37;;;;;;;11.14;45.11;99433.47;4958684;29;20674;-84
2022/04/11 20:22:59;;;;;;;1.77;1.00;;;;;;;11.07;44.47;99439.94;4958330;29;20589;-87
2022/04/11 20:25:24;;;;;;;1.70;0.77;;;;;;;10.97;44.18;99436.94;4958129;29;20170;-87
2022/04/11 20:27:50;;;;;;;1.23;1.03;;;;;;;10.96;44.15;99440.47;4957941;29;20177;-86
2022/04/11 20:30:16;;;;;;;3.67;1.50;;;;;;;11.11;44.15;99434.47;4941377;29;20189;-86
2022/04/11 20:32:42;;;;;;;2.40;1.07;;;;;;;10.96;44.52;99444.88;4957850;29;20181;-85
2022/04/11 20:35:08;;;;;;;2.83;1.10;;;;;;;10.92;44.40;99451.19;4957786;29;20594;-85
2022/04/11 20:37:34;;;;;;;3.30;1.63;;;;;;;10.77;44.81;99454.56;4957890;29;20538;-87
2022/04/11 20:39:59;;;;;;;3.03;1.27;;;;;;;10.80;45.16;99454.41;4958132;28;20192;-84
2022/04/11 20:42:25;;;;;;;3.70;1.10;;;;;;;10.68;45.29;99455.00;4957723;29;20231;-86
2022/04/11 20:44:50;;;;;;;1.73;1.00;;;;;;;10.91;44.73;99454.75;4941626;29;20284;-86
2022/04/11 20:47:16;;;;;;;1.17;0.90;;;;;;;10.90;45.00;99461.75;4941082;29;20181;-86
2022/04/11 20:49:42;;;;;;;2.43;1.20;;;;;;;10.88;45.20;99457.50;4957901;29;20177;-82
2022/04/11 20:52:08;;;;;;;2.23;1.13;;;;;;;10.86;45.55;99467.22;4958147;29;20181;-86
2022/04/11 20:57:17;;;;;;;2.43;1.23;;;;;;;10.65;45.93;99465.63;4957581;29;20227;-85
2022/04/11 20:59:42;;;;;;;2.67;1.07;;;;;;;10.53;46.51;99477.56;4958037;29;20268;-86
2022/04/11 21:02:08;;;;;;;1.90;1.07;;;;;;;10.67;46.24;99458.53;4956189;28;20177;-87
2022/04/11 21:04:33;;;;;;;3.33;1.40;;;;;;;10.70;46.08;99464.50;4957348;29;20192;-86
2022/04/11 21:06:59;;;;;;;1.73;1.20;;;;;;;10.69;45.94;99467.19;4957538;29;20174;-86
2022/04/11 21:09:24;;;;;;;4.57;1.67;;;;;;;10.64;45.96;99475.25;4957334;29;20192;-86
2022/04/11 21:11:50;;;;;;;2.47;1.17;;;;;;;10.71;46.25;99476.69;4957210;29;20552;-87
2022/04/11 21:14:16;;;;;;;3.13;1.20;;;;;;;10.66;46.19;99475.22;4957468;29;20177;-85
2022/04/11 21:16:42;;;;;;;2.67;1.20;;;;;;;10.66;46.20;99472.59;4940299;29;20212;-85
2022/04/11 21:19:07;;;;;;;1.10;0.60;;;;;;;10.51;46.28;99473.31;4957684;29;20213;-87
2022/04/11 21:21:33;;;;;;;2.57;1.37;;;;;;;10.54;46.01;99483.63;4957242;29;20181;-86
2022/04/11 21:23:59;;;;;;;2.20;1.30;;;;;;;10.67;46.27;99479.50;4940818;29;20211;-86
2022/04/11 21:26:24;;;;;;;1.00;0.60;;;;;;;10.49;46.27;99482.09;4940605;29;20249;-86
2022/04/11 21:28:50;;;;;;;2.60;1.13;;;;;;;10.47;46.52;99483.94;4957257;29;20191;-86
2022/04/11 21:31:15;;;;;;;1.87;0.93;;;;;;;10.48;46.26;99488.25;4957472;29;20309;-86
2022/04/11 21:33:41;;;;;;;1.10;0.80;;;;;;;10.48;46.44;99483.00;4957148;29;20212;-86
2022/04/11 21:36:06;;;;;;;1.70;1.23;;;;;;;10.40;46.37;99490.34;4956793;29;20212;-86
2022/04/11 21:38:31;;;;;;;1.43;0.77;;;;;;;10.32;46.72;99487.28;4956798;29;20177;-86
2022/04/11 21:40:57;;;;;;;2.00;0.87;;;;;;;10.46;45.97;99492.72;4956867;28;20192;-86
2022/04/11 21:43:23;;;;;;;2.57;1.30;;;;;;;10.25;46.56;99493.69;4956887;29;20197;-86
2022/04/11 21:45:48;;;;;;;2.33;1.10;;;;;;;10.27;46.79;99491.84;4956596;29;20209;-86
2022/04/11 21:48:14;;;;;;;2.67;1.20;;;;;;;10.47;46.09;99498.81;4956892;29;20255;-85
2022/04/11 21:50:39;;;;;;;2.13;1.07;;;;;;;10.43;45.95;99502.47;4956590;29;20188;-86
2022/04/11 21:53:05;;;;;;;2.00;1.00;;;;;;;10.39;46.15;99508.78;4956532;29;20177;-86
2022/04/11 21:55:31;;;;;;;1.40;0.77;;;;;;;10.30;46.11;99503.94;4957049;29;20756;-85
2022/04/11 21:57:56;;;;;;;4.57;1.30;;;;;;;10.21;46.08;99502.63;4956440;29;20176;-86
2022/04/11 22:00:37;;;;;;;10.47;2.80;;;;;;;10.21;46.17;99501.78;4939501;29;20621;-86
2022/04/11 22:03:08;;;;;;;2.70;1.33;;;;;;;10.18;46.20;99508.00;4956544;29;20193;-86
2022/04/11 22:05:34;;;;;;;3.77;1.30;;;;;;;10.31;46.07;99509.16;4956867;29;20161;-85
2022/04/11 22:08:00;;;;;;;4.23;1.30;;;;;;;10.47;45.77;99504.91;4956141;29;20640;-86
2022/04/11 22:10:26;;;;;;;3.60;1.97;;;;;;;10.52;45.63;99507.31;4956236;29;20184;-86
2022/04/11 22:12:51;;;;;;;1.33;1.00;;;;;;;10.56;45.77;99503.59;4956162;28;20192;-86
2022/04/11 22:15:17;;;;;;;3.77;1.47;;;;;;;10.53;45.53;99509.03;4955791;29;20702;-86
2022/04/11 22:17:42;;;;;;;1.83;1.20;;;;;;;10.55;45.12;99503.69;4956051;29;20541;-86
2022/04/11 22:20:12;;;;;;;2.00;1.20;;;;;;;10.33;45.48;99507.28;4939378;29;20195;-86
2022/04/11 22:22:39;;;;;;;3.47;1.27;;;;;;;10.44;45.55;99507.66;4938974;29;20225;-86
2022/04/11 22:25:08;;;;;;;2.70;1.13;;;;;;;10.42;45.34;99511.28;4939013;29;20556;-86
2022/04/11 22:27:34;;;;;;;3.03;1.27;;;;;;;10.48;45.32;99506.59;4955823;29;20184;-85
2022/04/11 22:30:01;;;;;;;2.30;1.20;;;;;;;10.45;45.46;99509.34;4956157;29;20580;-85
2022/04/11 22:32:27;;;;;;;1.97;0.70;;;;;;;10.34;45.67;99506.38;4956025;29;20197;-86
2022/04/11 22:34:52;;;;;;;3.17;1.27;;;;;;;10.35;45.51;99508.06;4955647;29;20212;-86
2022/04/11 22:37:18;;;;;;;1.13;0.77;;;;;;;10.36;45.04;99512.41;4955716;29;20212;-86
2022/04/11 22:39:43;;;;;;;1.77;1.20;;;;;;;10.34;45.26;99508.16;4938613;28;20259;-86
2022/04/11 22:42:09;;;;;;;1.90;1.00;;;;;;;10.35;45.47;99504.63;4955604;29;20566;-86
2022/04/11 22:44:36;;;;;;;1.83;1.10;;;;;;;10.29;45.54;99504.91;4955822;29;20203;-87
2022/04/11 22:47:02;;;;;;;3.67;1.37;;;;;;;10.26;45.23;99503.25;4956028;29;20177;-86
2022/04/11 22:49:28;;;;;;;2.40;0.97;;;;;;;10.19;45.28;99509.72;4955558;29;20181;-86
2022/04/11 22:51:53;;;;;;;1.70;0.93;;;;;;;10.29;44.99;99505.75;4938782;29;20255;-86
2022/04/11 22:54:18;;;;;;;2.47;0.97;;;;;;;10.17;45.04;99495.81;4955412;29;20181;-86
2022/04/11 22:56:44;;;;;;;2.13;1.33;;;;;;;10.23;45.22;99505.16;4955361;29;20185;-87
2022/04/11 22:59:09;;;;;;;1.53;0.73;;;;;;;10.20;45.43;99494.81;4939196;29;20180;-86
2022/04/11 23:01:35;;;;;;;3.53;1.23;;;;;;;10.19;45.05;99503.63;4955567;29;20184;-86
2022/04/11 23:04:00;;;;;;;1.53;1.10;;;;;;;10.19;45.38;99499.22;4938268;29;20290;-86
2022/04/11 23:06:26;;;;;;;1.73;0.90;;;;;;;10.22;44.74;99493.81;4955781;29;20196;-86
2022/04/11 23:08:51;;;;;;;1.03;0.90;;;;;;;10.11;45.06;99492.59;4955170;29;20202;-86
2022/04/11 23:11:17;;;;;;;2.13;1.17;;;;;;;10.25;44.96;99504.16;4955190;29;20636;-86
2022/04/11 23:13:42;;;;;;;2.10;1.00;;;;;;;10.17;45.10;99490.56;4955644;29;20181;-86
2022/04/11 23:16:08;;;;;;;1.90;0.83;;;;;;;9.99;44.41;99496.59;4955401;29;20180;-85
2022/04/11 23:18:33;;;;;;;1.03;0.60;;;;;;;10.06;44.63;99494.56;4955345;29;20247;-86
2022/04/11 23:20:58;;;;;;;2.40;1.20;;;;;;;9.99;44.19;99493.13;4938128;29;20654;-86
2022/04/11 23:23:24;;;;;;;3.50;1.50;;;;;;;10.12;43.98;99497.78;4955194;29;20211;-87
2022/04/11 23:25:50;;;;;;;2.83;0.97;;;;;;;9.98;44.43;99494.91;4938220;29;20188;-85
2022/04/11 23:28:15;;;;;;;2.77;1.07;;;;;;;9.68;45.31;99497.09;4955253;29;20624;-86
2022/04/11 23:30:44;;;;;;;3.23;1.20;;;;;;;9.82;45.00;99486.03;4954979;29;20204;-86
2022/04/11 23:33:10;;;;;;;3.70;1.07;;;;;;;9.93;44.85;99482.94;4954901;29;20180;-86
2022/04/11 23:35:36;;;;;;;1.97;0.80;;;;;;;9.91;44.95;99483.00;4954917;29;20184;-86
2022/04/11 23:38:01;;;;;;;2.10;0.90;;;;;;;9.86;44.39;99479.72;4955129;29;20192;-86
2022/04/11 23:43:11;;;;;;;1.27;0.90;;;;;;;9.52;45.52;99475.13;4955538;29;20235;-86
2022/04/11 23:45:36;;;;;;;2.40;0.93;;;;;;;9.61;44.98;99471.25;4954875;29;20173;-86
2022/04/11 23:48:03;;;;;;;3.10;1.20;;;;;;;9.57;45.11;99469.69;4937948;29;20189;-86
2022/04/11 23:50:29;;;;;;;3.00;1.50;;;;;;;9.47;45.37;99471.00;4954785;29;20183;-86
2022/04/11 23:52:54;;;;;;;0.97;0.60;;;;;;;9.48;45.08;99470.94;4938389;29;20180;-86
2022/04/11 23:55:20;;;;;;;1.00;0.60;;;;;;;9.66;44.79;99471.91;4954730;29;20265;-86
2022/04/11 23:57:45;;;;;;;1.17;0.70;;;;;;;9.61;44.68;99474.75;4954632;29;20181;-87
